Asherville, Missouri
Current Conditions -  °F | °C
As of 1:53 AM on Saturday 01 Nov 2014 (Local Time) from KPOF Reporting Station
Clear Clear  
Wind Chill: 27°   Ceiling: Unl
Heat Index: 33°   Visibility: 10mi
Dew Point: 21°   Wind: 7mph
Humidity: 61%   Direction: 330°NNW
Pressure: 30.37"   Gusts: NA
Location:  36.9506°N, 90.1582°W
Report Text: KPOF 010653Z AUTO 33006KT 10SM CLR 01/M06 A3037 RMK AO2 SLP286 I1000 T00061061
Loading
Personal Weather Stations






























Interactive Weather Map
Tropical Storm Tracking
New forecast layout! Learn more

10-Day Weather Forecast

Advertisements
Track Severe Weather on mobile